Time;durP1;ratioP1;P1;durP2;ratioP2;P2;SDS_P1;SDS_P2;PMS_P1;PMS_P2;Temp;Humidity;BMP_temperature;BMP_pressure;BME280_temperature;BME280_humidity;BME280_pressure;Samples;Min_cycle;Max_cycle;Signal;HPM_P1;HPM_P2
2022/10/27 00:02:10;;;;;;;1.52;1.33;;;;;;;12.87;69.24;63322.81;4986496;28;20584;-76
2022/10/27 00:04:37;;;;;;;2.05;1.40;;;;;;;12.88;69.60;63333.56;4967677;28;20509;-76
2022/10/27 00:07:04;;;;;;;2.17;1.35;;;;;;;12.81;69.90;63324.25;4985781;28;20243;-76
2022/10/27 00:09:31;;;;;;;1.33;1.33;;;;;;;12.77;69.92;63318.06;4984629;28;20496;-78
2022/10/27 00:11:58;;;;;;;1.42;1.35;;;;;;;12.71;70.25;63313.88;4984837;28;20529;-76
2022/10/27 00:14:25;;;;;;;2.28;1.60;;;;;;;12.70;70.85;63315.41;4985283;28;20287;-75
2022/10/27 00:16:54;;;;;;;1.60;1.50;;;;;;;12.70;71.18;63305.19;4985572;28;20240;-76
2022/10/27 00:19:23;;;;;;;1.70;1.60;;;;;;;12.73;71.42;63319.03;4983706;28;20208;-75
2022/10/27 00:21:50;;;;;;;5.07;1.25;;;;;;;12.70;71.42;63312.84;4984124;28;20216;-75
2022/10/27 00:24:17;;;;;;;2.90;1.88;;;;;;;12.70;71.36;63310.81;4984455;28;20291;-77
2022/10/27 00:26:44;;;;;;;1.45;1.35;;;;;;;12.74;71.61;63311.88;4985991;28;20298;-75
2022/10/27 00:29:11;;;;;;;1.63;1.52;;;;;;;12.71;71.50;63311.34;4983216;28;20504;-76
2022/10/27 00:31:38;;;;;;;1.88;1.77;;;;;;;12.77;71.30;63323.19;4984058;28;20220;-76
2022/10/27 00:34:05;;;;;;;2.22;1.80;;;;;;;12.76;71.94;63317.03;4985701;28;20244;-76
2022/10/27 00:36:33;;;;;;;1.50;1.40;;;;;;;12.78;71.79;63316.03;4981887;28;20235;-76
2022/10/27 00:39:00;;;;;;;3.35;1.80;;;;;;;12.84;70.97;63327.38;4986562;28;20200;-76
2022/10/27 00:41:29;;;;;;;2.38;1.48;;;;;;;12.79;71.65;63322.19;4995100;28;20278;-76
2022/10/27 00:43:57;;;;;;;2.42;1.73;;;;;;;12.77;72.43;63315.00;4982359;28;20215;-76
2022/10/27 00:46:34;;;;;;;1.85;1.70;;;;;;;12.74;72.82;63314.97;4984843;28;20232;-78
2022/10/27 00:49:06;;;;;;;2.15;2.05;;;;;;;12.75;73.13;63312.94;4987648;28;20199;-76
2022/10/27 00:51:34;;;;;;;3.63;1.85;;;;;;;12.72;73.20;63315.44;4985881;28;20268;-76
2022/10/27 00:54:02;;;;;;;3.88;2.00;;;;;;;12.79;72.89;63317.59;4988999;28;20259;-75
2022/10/27 00:56:29;;;;;;;3.95;2.30;;;;;;;12.77;73.33;63320.63;4987256;28;20224;-75
2022/10/27 00:58:57;;;;;;;2.28;2.00;;;;;;;12.77;73.25;63315.50;4997261;28;20262;-75
2022/10/27 01:01:24;;;;;;;1.92;1.70;;;;;;;12.90;72.21;63323.38;4984882;28;20216;-76
2022/10/27 01:03:51;;;;;;;5.82;2.15;;;;;;;12.86;72.17;63324.34;4977354;28;20215;-75
2022/10/27 01:06:18;;;;;;;2.95;1.92;;;;;;;12.87;72.45;63327.94;4988987;28;20215;-76
2022/10/27 01:08:46;;;;;;;1.70;1.60;;;;;;;12.89;72.58;63332.53;4989231;28;20219;-76
2022/10/27 01:11:13;;;;;;;2.92;1.98;;;;;;;12.87;73.19;63329.97;4988037;28;20460;-76
2022/10/27 01:13:40;;;;;;;2.03;1.63;;;;;;;12.85;73.40;63325.84;4986565;28;20520;-76
2022/10/27 01:16:21;;;;;;;2.45;2.28;;;;;;;12.81;73.41;63321.69;4990965;28;20219;-76
2022/10/27 01:18:57;;;;;;;2.10;2.00;;;;;;;12.80;73.16;63323.72;4986056;28;20208;-76
2022/10/27 01:21:48;;;;;;;2.42;2.00;;;;;;;12.82;72.74;63319.66;4972998;28;20223;-76
2022/10/27 01:24:46;;;;;;;3.47;2.58;;;;;;;12.80;72.78;63318.13;4991051;28;20239;-76
2022/10/27 01:28:01;;;;;;;2.80;2.60;;;;;;;12.67;73.56;63310.25;4981166;28;20234;-77
2022/10/27 01:30:30;;;;;;;5.18;3.13;;;;;;;12.63;73.47;63303.56;4969593;28;20222;-76
2022/10/27 01:33:04;;;;;;;2.95;2.75;;;;;;;12.58;74.08;63300.41;4988823;28;20223;-76
2022/10/27 01:35:38;;;;;;;1.92;1.80;;;;;;;12.56;74.66;63295.78;4988482;28;20230;-76
2022/10/27 01:38:12;;;;;;;2.22;2.03;;;;;;;12.54;75.06;63293.72;4987903;28;20298;-76
2022/10/27 01:40:45;;;;;;;2.55;2.35;;;;;;;12.52;75.71;63289.59;4990256;28;20551;-76
2022/10/27 01:43:17;;;;;;;1.83;1.65;;;;;;;12.48;76.35;63287.47;4988125;28;20204;-76
2022/10/27 01:45:45;;;;;;;1.55;1.45;;;;;;;12.46;76.79;63283.38;4988686;28;20203;-75
2022/10/27 01:48:14;;;;;;;2.20;1.83;;;;;;;12.40;76.83;63274.09;4987792;28;20247;-76
2022/10/27 01:50:42;;;;;;;3.13;1.88;;;;;;;12.32;77.39;63271.41;4985209;28;20206;-77
2022/10/27 01:53:10;;;;;;;1.58;1.48;;;;;;;12.35;77.64;63279.13;4971337;28;20217;-76
2022/10/27 01:55:47;;;;;;;1.80;1.70;;;;;;;12.29;77.36;63270.34;4971603;28;20493;-76
2022/10/27 01:58:39;;;;;;;3.05;2.17;;;;;;;12.29;77.23;63268.31;4987867;28;20262;-76
2022/10/27 02:01:21;;;;;;;2.08;1.80;;;;;;;12.27;76.85;63265.72;4969979;28;20232;-77
2022/10/27 02:03:55;;;;;;;1.80;1.70;;;;;;;12.28;76.20;63269.81;4968756;28;20330;-76
2022/10/27 02:06:30;;;;;;;1.83;1.60;;;;;;;12.29;75.36;63265.75;4978178;28;20246;-75
2022/10/27 02:09:04;;;;;;;2.88;1.63;;;;;;;12.36;74.49;63278.13;4989279;28;20211;-76
2022/10/27 02:11:35;;;;;;;3.88;2.25;;;;;;;12.40;74.27;63279.19;4969923;28;20564;-76
2022/10/27 02:14:03;;;;;;;2.00;1.88;;;;;;;12.49;73.56;63285.97;4969219;28;20197;-75
2022/10/27 02:16:34;;;;;;;9.07;1.73;;;;;;;12.49;73.75;63288.53;4984635;28;20223;-75
2022/10/27 02:19:06;;;;;;;2.70;1.70;;;;;;;12.49;73.05;63285.97;4986253;28;20228;-76
2022/10/27 02:21:36;;;;;;;1.40;1.30;;;;;;;12.50;73.35;63287.00;4988307;28;20227;-75
2022/10/27 02:24:04;;;;;;;1.95;1.52;;;;;;;12.49;73.60;63288.53;4988034;28;20200;-76
2022/10/27 02:26:37;;;;;;;1.80;1.65;;;;;;;12.50;72.78;63287.00;4994997;28;20223;-75
2022/10/27 02:29:08;;;;;;;1.60;1.50;;;;;;;12.53;73.08;63290.09;4993021;28;20235;-76
2022/10/27 02:31:37;;;;;;;3.58;1.48;;;;;;;12.55;72.98;63297.28;4987217;28;20279;-76
2022/10/27 02:34:06;;;;;;;1.92;1.42;;;;;;;12.53;72.99;63295.75;4986820;28;20497;-76
2022/10/27 02:36:34;;;;;;;2.38;1.20;;;;;;;12.50;72.63;63287.53;4995764;28;20599;-76
2022/10/27 02:39:00;;;;;;;1.40;1.30;;;;;;;12.46;72.84;63285.41;4987446;28;20224;-77
2022/10/27 02:41:27;;;;;;;1.75;1.38;;;;;;;12.45;72.74;63284.38;4986653;28;20223;-76
2022/10/27 02:43:54;;;;;;;1.92;1.38;;;;;;;12.48;72.45;63290.03;4991247;28;20238;-76
2022/10/27 02:46:21;;;;;;;2.15;1.45;;;;;;;12.43;72.48;63284.84;4997092;28;20228;-77
2022/10/27 02:48:48;;;;;;;4.03;1.15;;;;;;;12.44;72.35;63283.84;4968546;28;20216;-76
2022/10/27 02:51:16;;;;;;;1.75;1.65;;;;;;;12.47;72.83;63286.97;4970821;28;20247;-75
2022/10/27 02:53:43;;;;;;;2.10;1.90;;;;;;;12.47;73.77;63286.97;4996073;28;20413;-76
2022/10/27 02:56:11;;;;;;;3.25;2.17;;;;;;;12.44;74.44;63278.75;5002378;28;20219;-76
2022/10/27 02:58:38;;;;;;;2.22;1.80;;;;;;;12.37;74.83;63279.13;4987736;28;20527;-75
2022/10/27 03:01:05;;;;;;;4.93;2.17;;;;;;;12.37;74.92;63276.09;4985559;28;20492;-76
2022/10/27 03:03:32;;;;;;;2.35;1.88;;;;;;;12.37;74.98;63276.09;4986113;28;20365;-76
2022/10/27 03:05:59;;;;;;;1.80;1.70;;;;;;;12.34;75.06;63276.03;4984870;28;20227;-76
2022/10/27 03:08:27;;;;;;;1.33;1.23;;;;;;;12.32;74.96;63271.41;4984733;28;20208;-76
2022/10/27 03:10:54;;;;;;;2.78;2.58;;;;;;;12.28;74.92;63262.16;4985261;28;20566;-76
2022/10/27 03:13:21;;;;;;;2.67;1.25;;;;;;;12.25;75.58;63263.66;4986562;28;20501;-75
2022/10/27 03:15:48;;;;;;;1.92;1.52;;;;;;;12.20;75.60;63258.97;4987358;28;20200;-76
2022/10/27 03:18:14;;;;;;;1.48;1.45;;;;;;;12.19;75.12;63254.88;4986988;28;20240;-76
2022/10/27 03:20:41;;;;;;;1.83;1.58;;;;;;;12.19;75.02;63255.38;4984593;28;20412;-76
2022/10/27 03:23:08;;;;;;;3.28;1.73;;;;;;;12.11;75.10;63247.09;4987033;28;20215;-76
2022/10/27 03:25:42;;;;;;;1.98;1.83;;;;;;;12.05;75.53;63240.88;4985498;28;20381;-76
2022/10/27 03:28:09;;;;;;;1.77;1.65;;;;;;;12.00;76.21;63237.72;4982693;28;20220;-76
2022/10/27 03:30:36;;;;;;;1.75;1.65;;;;;;;11.96;76.67;63231.03;4985752;28;20219;-76
2022/10/27 03:33:03;;;;;;;2.70;1.45;;;;;;;11.96;76.91;63233.59;4988492;28;20282;-76
2022/10/27 03:35:29;;;;;;;1.73;1.63;;;;;;;11.95;77.09;63232.53;4972920;28;20209;-76
2022/10/27 03:37:58;;;;;;;2.03;1.60;;;;;;;11.92;77.66;63226.88;4983769;28;20258;-76
2022/10/27 03:40:25;;;;;;;3.78;2.08;;;;;;;11.84;78.82;63219.09;4985316;28;20263;-75
2022/10/27 03:42:57;;;;;;;1.98;1.88;;;;;;;11.83;78.98;63220.63;4967589;28;20225;-75
2022/10/27 03:45:24;;;;;;;2.40;1.60;;;;;;;11.77;79.65;63213.91;4974897;28;20204;-76
2022/10/27 03:48:00;;;;;;;2.17;2.08;;;;;;;11.75;80.15;63209.81;4984470;28;20279;-76
2022/10/27 03:50:27;;;;;;;1.95;1.83;;;;;;;11.76;80.50;63212.84;4987476;28;20223;-75
2022/10/27 03:52:54;;;;;;;5.50;2.30;;;;;;;11.77;80.83;63211.34;4982887;28;20226;-76
2022/10/27 03:55:21;;;;;;;2.53;2.33;;;;;;;11.77;80.94;63216.97;4984611;28;20227;-75
2022/10/27 03:57:48;;;;;;;2.40;2.22;;;;;;;11.77;81.54;63211.34;4985353;28;20231;-75
2022/10/27 04:00:17;;;;;;;2.47;2.28;;;;;;;11.77;81.84;63208.81;4966701;28;20252;-74
2022/10/27 04:02:44;;;;;;;2.92;2.50;;;;;;;11.73;82.61;63207.72;4995939;28;20484;-76
2022/10/27 04:05:12;;;;;;;2.30;2.10;;;;;;;11.57;83.87;63191.66;5000918;28;20196;-78
2022/10/27 04:07:39;;;;;;;4.53;2.75;;;;;;;11.26;87.12;63164.09;4986321;28;20228;-74
2022/10/27 04:10:06;;;;;;;2.65;2.45;;;;;;;11.32;86.93;63168.28;4984956;28;20539;-75
2022/10/27 04:12:33;;;;;;;4.15;2.60;;;;;;;11.39;86.83;63173.00;4981522;28;20217;-74
2022/10/27 04:15:00;;;;;;;3.53;2.78;;;;;;;11.44;86.68;63177.66;4973975;28;20201;-75
2022/10/27 04:17:28;;;;;;;4.50;3.13;;;;;;;11.45;86.39;63176.13;4984851;28;20216;-75
2022/10/27 04:19:55;;;;;;;4.05;2.97;;;;;;;11.54;85.87;63188.03;4980212;28;20269;-73
2022/10/27 04:22:22;;;;;;;2.83;2.63;;;;;;;11.54;86.03;63190.56;4984578;28;20220;-76
2022/10/27 04:24:49;;;;;;;6.13;3.25;;;;;;;11.60;86.15;63197.31;4987612;28;20260;-74
2022/10/27 04:27:16;;;;;;;3.45;2.65;;;;;;;11.61;86.17;63197.81;4991347;28;20266;-75
2022/10/27 04:29:42;;;;;;;3.50;3.20;;;;;;;11.60;86.35;63194.75;4973682;28;20271;-74
2022/10/27 04:32:09;;;;;;;2.47;2.30;;;;;;;11.55;86.95;63194.66;4985014;28;20230;-75
2022/10/27 04:34:37;;;;;;;1.92;1.83;;;;;;;11.48;85.65;63184.88;4989450;28;20208;-76
2022/10/27 04:37:04;;;;;;;3.63;2.55;;;;;;;11.52;85.97;63189.00;4992963;28;20258;-76
2022/10/27 04:39:31;;;;;;;2.53;2.33;;;;;;;11.56;86.17;63193.16;4991553;28;20235;-77
2022/10/27 04:41:58;;;;;;;3.17;2.78;;;;;;;11.57;85.30;63194.19;4990412;28;20220;-77
2022/10/27 04:44:25;;;;;;;3.90;3.10;;;;;;;11.53;85.46;63186.97;4983030;28;20196;-76
2022/10/27 04:46:52;;;;;;;3.35;2.08;;;;;;;11.63;84.99;63199.91;4990680;28;20636;-75
2022/10/27 04:49:18;;;;;;;2.67;2.00;;;;;;;11.67;84.82;63206.59;4991559;28;20215;-76
2022/10/27 04:51:47;;;;;;;3.28;2.20;;;;;;;11.73;84.27;63207.19;4990496;28;20238;-76
2022/10/27 04:54:14;;;;;;;2.40;2.30;;;;;;;11.74;84.51;63213.84;4991546;28;20208;-76
2022/10/27 04:56:41;;;;;;;2.70;2.50;;;;;;;11.74;85.06;63213.34;4992008;28;20223;-76
2022/10/27 04:59:07;;;;;;;3.15;2.80;;;;;;;11.71;85.37;63212.78;4992234;28;20266;-75
2022/10/27 05:01:34;;;;;;;2.63;2.42;;;;;;;11.68;85.47;63200.00;4990406;28;20294;-76
2022/10/27 05:04:01;;;;;;;3.88;2.92;;;;;;;11.61;85.35;63198.31;4987931;28;20200;-77
2022/10/27 05:06:28;;;;;;;3.85;2.35;;;;;;;11.62;85.39;63201.41;4991105;28;20223;-78
2022/10/27 05:08:57;;;;;;;3.45;3.15;;;;;;;11.67;86.65;63201.50;4988240;28;20207;-78
2022/10/27 05:11:23;;;;;;;2.80;2.60;;;;;;;11.70;85.54;63206.66;4991339;28;20262;-77
2022/10/27 05:13:51;;;;;;;4.10;2.55;;;;;;;11.72;85.36;63206.69;4990897;28;20211;-76
2022/10/27 05:16:19;;;;;;;3.78;2.25;;;;;;;11.68;85.96;63197.44;4989669;28;20212;-77
2022/10/27 05:18:54;;;;;;;2.50;2.30;;;;;;;11.71;86.20;63207.69;4994431;28;20228;-79
2022/10/27 05:21:21;;;;;;;2.28;2.17;;;;;;;11.71;86.26;63205.13;5000185;28;20223;-76
2022/10/27 05:23:48;;;;;;;4.43;2.45;;;;;;;11.80;86.03;63214.47;4992630;28;20204;-76
2022/10/27 05:26:16;;;;;;;4.70;4.07;;;;;;;11.65;87.93;63199.41;4991079;28;20215;-77
2022/10/27 05:28:43;;;;;;;12.68;3.65;;;;;;;11.53;88.81;63187.50;5005641;28;20203;-78
2022/10/27 05:31:10;;;;;;;14.02;5.03;;;;;;;11.28;90.81;63161.09;4992042;28;20220;-77
2022/10/27 05:33:37;;;;;;;7.05;4.28;;;;;;;11.18;91.61;63150.72;4997295;28;20188;-76
2022/10/27 05:36:04;;;;;;;9.02;3.97;;;;;;;11.27;91.59;63160.03;4997620;28;20224;-77
2022/10/27 05:38:31;;;;;;;5.80;4.10;;;;;;;11.29;91.40;63167.72;4987147;28;20248;-77
2022/10/27 05:40:58;;;;;;;6.60;5.45;;;;;;;11.27;91.73;63158.00;4977289;28;20205;-77
2022/10/27 05:43:26;;;;;;;9.50;5.47;;;;;;;11.18;92.40;63153.28;4979455;28;20207;-78
2022/10/27 05:45:53;;;;;;;9.82;5.00;;;;;;;11.24;92.58;63160.00;4990780;28;20208;-78
2022/10/27 05:48:20;;;;;;;19.02;5.32;;;;;;;11.25;92.45;63158.50;4969144;29;20204;-76
2022/10/27 05:50:52;;;;;;;14.13;6.07;;;;;;;11.29;92.39;63167.72;4998246;28;20242;-77
2022/10/27 05:53:19;;;;;;;12.63;5.60;;;;;;;11.27;92.94;63162.59;4986344;28;20444;-75
2022/10/27 05:55:46;;;;;;;11.20;6.07;;;;;;;11.28;92.94;63163.63;4987434;28;20426;-77
2022/10/27 05:58:12;;;;;;;11.15;6.60;;;;;;;11.29;93.20;63162.63;4975138;28;20300;-74
2022/10/27 06:00:40;;;;;;;14.23;5.28;;;;;;;11.26;93.27;63161.56;4988768;28;20275;-76
2022/10/27 06:03:16;;;;;;;10.23;4.72;;;;;;;11.26;94.42;63161.56;4984830;28;20220;-76
2022/10/27 06:05:43;;;;;;;11.57;5.00;;;;;;;11.18;94.34;63150.72;4982150;28;20211;-75
2022/10/27 06:10:53;;;;;;;13.93;5.68;;;;;;;11.14;95.03;63149.66;5012475;23;20512;-75
2022/10/27 06:13:20;;;;;;;15.48;6.25;;;;;;;11.18;95.18;63151.25;5008753;28;20215;-76
2022/10/27 06:15:48;;;;;;;12.88;6.10;;;;;;;11.23;94.97;63153.88;5028799;28;20195;-73
2022/10/27 06:18:15;;;;;;;15.20;6.40;;;;;;;11.26;95.03;63164.63;5004161;28;20223;-74
2022/10/27 06:20:43;;;;;;;9.23;5.90;;;;;;;11.32;95.02;63168.28;5000256;28;20215;-74
2022/10/27 06:23:10;;;;;;;17.05;6.32;;;;;;;11.33;94.78;63171.88;4988175;28;20278;-74
2022/10/27 06:25:37;;;;;;;12.60;6.25;;;;;;;11.31;95.13;63164.19;5004424;28;20202;-74
2022/10/27 06:28:04;;;;;;;15.63;5.90;;;;;;;11.40;94.85;63179.13;4994975;28;20219;-75
2022/10/27 06:30:32;;;;;;;10.75;5.72;;;;;;;11.40;95.23;63178.63;5005853;28;20203;-73
2022/10/27 06:33:00;;;;;;;7.30;5.20;;;;;;;11.43;95.16;63179.69;5007219;28;20219;-75
2022/10/27 06:35:27;;;;;;;12.27;6.07;;;;;;;11.27;97.38;63165.66;5015096;28;20203;-75
2022/10/27 06:37:54;;;;;;;16.90;6.15;;;;;;;11.45;97.44;63179.22;5009491;28;20249;-75
2022/10/27 06:40:21;;;;;;;14.13;6.75;;;;;;;11.65;97.19;63204.53;5011950;28;20531;-74
2022/10/27 06:42:49;;;;;;;11.55;6.07;;;;;;;11.89;94.40;63228.88;5009126;28;20223;-73
2022/10/27 06:45:17;;;;;;;13.13;5.95;;;;;;;12.10;92.38;63246.06;4999434;28;20200;-77
2022/10/27 06:47:44;;;;;;;9.52;6.30;;;;;;;12.35;90.59;63274.00;5005641;28;20215;-75
2022/10/27 06:50:12;;;;;;;12.65;6.68;;;;;;;12.51;85.96;63291.09;5005723;28;20255;-74
2022/10/27 06:52:40;;;;;;;10.27;5.70;;;;;;;12.44;85.58;63280.78;5003924;28;20446;-75
2022/10/27 06:55:08;;;;;;;11.25;5.60;;;;;;;12.36;85.86;63275.03;5003383;28;20512;-76
2022/10/27 06:57:43;;;;;;;9.38;6.15;;;;;;;12.43;86.44;63277.19;5002683;28;20227;-74
2022/10/27 07:00:12;;;;;;;15.23;6.63;;;;;;;12.59;85.91;63298.88;5007165;28;20418;-74
2022/10/27 07:02:39;;;;;;;23.20;6.60;;;;;;;12.68;85.99;63308.22;5002410;28;20558;-75
2022/10/27 07:05:07;;;;;;;9.70;6.70;;;;;;;12.76;86.68;63316.53;5000611;28;20218;-75
2022/10/27 07:07:36;;;;;;;9.55;6.03;;;;;;;12.89;84.55;63327.44;5005707;28;20237;-75
2022/10/27 07:10:03;;;;;;;15.70;6.18;;;;;;;13.00;82.54;63343.97;5006747;28;20262;-74
2022/10/27 07:12:30;;;;;;;9.32;7.30;;;;;;;13.10;84.02;63349.25;5004854;28;20557;-75
2022/10/27 07:14:57;;;;;;;14.23;7.28;;;;;;;13.03;85.26;63347.09;5006049;28;20262;-74
2022/10/27 07:17:24;;;;;;;19.70;6.95;;;;;;;13.26;84.45;63365.31;5006522;28;20227;-74
2022/10/27 07:19:51;;;;;;;13.48;7.20;;;;;;;13.51;83.12;63393.81;5005281;28;20254;-74
2022/10/27 07:22:18;;;;;;;10.32;7.18;;;;;;;13.71;81.29;63415.09;5021410;28;20269;-74
2022/10/27 07:24:46;;;;;;;9.45;6.88;;;;;;;13.75;79.16;63414.13;5005550;28;20199;-75
2022/10/27 07:27:13;;;;;;;14.57;7.30;;;;;;;13.77;79.73;63420.81;4996796;28;20606;-74
2022/10/27 07:29:40;;;;;;;15.65;7.50;;;;;;;13.68;79.26;63409.41;5006609;28;20206;-74
2022/10/27 07:32:07;;;;;;;14.93;7.75;;;;;;;13.85;77.70;63429.13;5026052;28;20437;-74
2022/10/27 07:34:34;;;;;;;16.40;8.15;;;;;;;13.68;79.18;63411.47;5012054;28;20204;-74
2022/10/27 07:37:00;;;;;;;14.45;6.95;;;;;;;13.41;79.49;63383.97;5007762;28;20547;-74
2022/10/27 07:39:27;;;;;;;20.75;7.18;;;;;;;13.46;79.36;63391.72;5011493;28;20230;-75
2022/10/27 07:41:56;;;;;;;10.57;7.13;;;;;;;13.48;77.65;63385.59;5026015;28;20222;-74
2022/10/27 07:44:22;;;;;;;20.20;8.45;;;;;;;13.34;77.67;63376.19;5003553;28;20391;-75
2022/10/27 07:46:49;;;;;;;16.73;8.75;;;;;;;13.17;77.70;63358.53;5011464;28;20226;-74
2022/10/27 07:49:16;;;;;;;12.10;7.63;;;;;;;13.19;78.51;63358.06;5010297;28;20208;-75
2022/10/27 07:51:43;;;;;;;11.85;7.47;;;;;;;13.26;78.71;63365.84;4989423;28;20219;-74
2022/10/27 07:54:09;;;;;;;8.52;7.05;;;;;;;13.37;76.25;63381.84;5006361;28;20204;-74
2022/10/27 07:56:36;;;;;;;19.58;7.18;;;;;;;13.41;77.38;63378.31;5007842;28;20499;-73
2022/10/27 07:59:05;;;;;;;12.85;7.55;;;;;;;13.37;77.38;63379.81;5004661;28;20227;-74
2022/10/27 08:01:32;;;;;;;16.27;8.90;;;;;;;13.51;77.38;63394.34;5005437;28;20438;-74
2022/10/27 08:03:59;;;;;;;15.75;7.28;;;;;;;13.69;76.12;63409.94;5005917;28;20207;-74
2022/10/27 08:06:26;;;;;;;12.32;7.95;;;;;;;13.79;76.25;63418.28;5007849;28;20520;-75
2022/10/27 08:08:53;;;;;;;17.20;7.97;;;;;;;13.97;75.86;63441.56;4996253;28;20203;-75
2022/10/27 08:11:21;;;;;;;14.75;8.10;;;;;;;13.84;75.23;63428.59;5005552;28;20437;-74
2022/10/27 08:13:48;;;;;;;12.05;8.63;;;;;;;14.12;75.56;63462.25;5005073;28;20263;-74
2022/10/27 08:16:16;;;;;;;12.10;7.80;;;;;;;14.40;74.87;63485.72;5009680;28;20259;-74
2022/10/27 08:18:43;;;;;;;12.25;8.25;;;;;;;14.57;73.52;63501.31;5004745;28;20486;-74
2022/10/27 08:21:10;;;;;;;14.20;8.55;;;;;;;14.63;73.79;63512.69;4992620;28;20413;-75
2022/10/27 08:23:37;;;;;;;12.65;8.35;;;;;;;14.91;71.60;63534.06;5001136;28;20215;-74
2022/10/27 08:26:04;;;;;;;16.75;8.57;;;;;;;15.02;70.95;63550.13;4998013;28;20267;-74
2022/10/27 08:28:31;;;;;;;11.27;8.00;;;;;;;15.21;69.47;63564.72;5004044;28;20261;-74
2022/10/27 08:30:58;;;;;;;13.38;7.90;;;;;;;15.43;68.21;63594.81;5004248;28;20214;-73
2022/10/27 08:33:26;;;;;;;15.88;8.07;;;;;;;15.48;67.54;63592.81;5012096;28;20233;-74
2022/10/27 08:35:53;;;;;;;14.35;8.02;;;;;;;15.66;66.66;63611.53;5024675;28;20228;-74
2022/10/27 08:38:20;;;;;;;13.90;6.85;;;;;;;15.71;66.18;63621.34;5012794;28;20543;-73
2022/10/27 08:41:02;;;;;;;13.98;6.88;;;;;;;15.86;66.79;63639.50;5004891;28;20223;-74
2022/10/27 08:44:03;;;;;;;11.65;8.30;;;;;;;16.03;65.16;63652.56;5004721;28;20207;-75
2022/10/27 08:46:39;;;;;;;9.32;6.85;;;;;;;16.29;63.39;63676.00;4988944;28;20269;-75
2022/10/27 08:49:19;;;;;;;12.98;6.82;;;;;;;16.35;62.75;63684.78;4985736;28;20221;-75
2022/10/27 08:51:49;;;;;;;14.13;6.65;;;;;;;16.40;62.06;63692.56;4998821;28;20387;-74
2022/10/27 08:54:15;;;;;;;13.15;5.85;;;;;;;16.42;60.31;63689.50;5003212;28;20206;-74
2022/10/27 08:56:43;;;;;;;6.95;6.25;;;;;;;16.47;59.02;63697.81;5008950;28;20328;-76
2022/10/27 08:59:16;;;;;;;11.43;4.80;;;;;;;16.52;57.56;63702.50;5004089;28;20473;-76
2022/10/27 09:01:50;;;;;;;7.10;4.57;;;;;;;16.63;55.92;63717.06;5004799;28;20387;-75
2022/10/27 09:04:29;;;;;;;14.50;5.53;;;;;;;16.71;56.71;63729.97;5005020;28;20203;-75
2022/10/27 09:07:09;;;;;;;10.05;5.18;;;;;;;16.82;55.34;63734.25;4999533;28;20223;-76
2022/10/27 09:09:46;;;;;;;11.95;5.40;;;;;;;17.09;55.67;63762.34;5011760;28;20209;-75
2022/10/27 09:12:22;;;;;;;6.88;5.30;;;;;;;17.26;53.84;63785.19;5029235;28;20221;-76
2022/10/27 09:15:15;;;;;;;8.05;5.30;;;;;;;17.23;53.90;63778.97;5015706;28;20209;-75
2022/10/27 09:17:47;;;;;;;6.15;4.40;;;;;;;17.28;53.40;63784.69;5009788;28;20226;-75
2022/10/27 09:20:24;;;;;;;6.47;4.13;;;;;;;17.11;52.66;63769.06;4991835;28;20282;-78
2022/10/27 09:22:54;;;;;;;8.90;4.05;;;;;;;17.18;52.48;63773.75;4989893;28;20250;-77
2022/10/27 09:25:22;;;;;;;8.02;3.80;;;;;;;17.38;51.81;63794.06;4994698;28;20262;-76
2022/10/27 09:27:53;;;;;;;6.18;4.57;;;;;;;17.46;51.34;63795.22;5014437;28;20237;-76
2022/10/27 09:30:20;;;;;;;7.32;3.78;;;;;;;17.38;51.86;63794.56;5007510;28;20198;-77
2022/10/27 09:32:50;;;;;;;8.57;3.60;;;;;;;17.52;51.08;63808.66;5006306;28;20446;-77
2022/10/27 09:35:22;;;;;;;6.72;4.45;;;;;;;17.70;51.52;63822.25;5010377;28;20488;-76
2022/10/27 09:37:49;;;;;;;3.92;3.17;;;;;;;17.70;50.29;63824.81;5023824;28;20258;-77
2022/10/27 09:40:18;;;;;;;8.07;3.20;;;;;;;17.68;50.98;63825.84;5027580;28;20299;-76
2022/10/27 09:42:48;;;;;;;8.68;3.60;;;;;;;17.89;48.70;63849.75;5008413;28;20465;-77
2022/10/27 09:45:17;;;;;;;3.53;2.58;;;;;;;17.89;45.55;63844.63;5011422;28;20256;-76
2022/10/27 09:47:47;;;;;;;1.85;1.75;;;;;;;18.03;44.35;63859.72;5008436;28;20282;-76
2022/10/27 09:50:20;;;;;;;3.10;2.10;;;;;;;18.24;45.46;63884.16;5007080;28;20198;-76
2022/10/27 09:52:48;;;;;;;4.22;2.33;;;;;;;18.57;44.63;63914.97;4996863;28;20298;-76
2022/10/27 09:55:16;;;;;;;3.03;1.83;;;;;;;18.50;43.25;63915.41;5016349;28;20226;-76
2022/10/27 09:57:46;;;;;;;1.98;1.88;;;;;;;18.63;43.03;63921.72;5012836;28;20222;-76
2022/10/27 10:00:27;;;;;;;2.38;1.95;;;;;;;18.67;42.94;63927.97;5014766;28;20257;-76
2022/10/27 10:03:04;;;;;;;3.90;2.20;;;;;;;18.48;44.06;63911.25;5008121;28;20479;-76
2022/10/27 10:05:35;;;;;;;3.78;2.88;;;;;;;18.56;43.54;63917.00;4993691;28;20222;-77
2022/10/27 10:08:14;;;;;;;2.97;2.67;;;;;;;18.66;43.37;63930.00;5006598;28;20219;-76
2022/10/27 10:10:53;;;;;;;2.20;2.00;;;;;;;18.87;42.49;63951.38;5012091;28;20224;-74
2022/10/27 10:13:21;;;;;;;3.15;2.50;;;;;;;19.02;42.24;63967.53;5007247;28;20242;-76
2022/10/27 10:16:04;;;;;;;8.55;2.33;;;;;;;19.21;42.53;63984.25;5018932;28;20396;-76
2022/10/27 10:18:31;;;;;;;3.75;2.75;;;;;;;19.39;42.82;64003.03;5015551;28;20198;-76
2022/10/27 10:21:02;;;;;;;7.88;3.53;;;;;;;19.56;41.75;64025.94;5026445;28;20233;-77
2022/10/27 10:23:32;;;;;;;5.13;2.50;;;;;;;19.46;41.93;64010.88;5012889;28;20507;-76
2022/10/27 10:26:01;;;;;;;4.68;2.90;;;;;;;19.16;41.20;63982.13;4999975;28;20202;-78
2022/10/27 10:28:34;;;;;;;4.90;2.45;;;;;;;19.17;41.64;63980.59;5006652;28;20233;-77
2022/10/27 10:31:04;;;;;;;6.10;2.60;;;;;;;19.32;41.54;64000.91;5024190;28;20233;-77
2022/10/27 10:33:35;;;;;;;5.43;2.60;;;;;;;19.45;41.78;64012.41;5025491;28;20201;-78
2022/10/27 10:36:18;;;;;;;4.63;2.45;;;;;;;19.53;41.37;64023.31;5010723;28;20508;-76
2022/10/27 10:38:50;;;;;;;6.22;2.72;;;;;;;19.56;40.52;64020.75;4988221;28;20253;-77
2022/10/27 10:41:20;;;;;;;6.72;2.55;;;;;;;19.72;41.14;64040.03;4995254;28;20343;-77
2022/10/27 10:44:06;;;;;;;2.25;2.10;;;;;;;19.77;39.53;64042.66;5008310;28;20238;-77
2022/10/27 10:46:34;;;;;;;2.20;2.08;;;;;;;19.71;38.34;64041.06;5005864;28;20226;-75
2022/10/27 10:49:01;;;;;;;6.97;2.53;;;;;;;19.65;38.90;64027.03;5006087;28;20470;-76
2022/10/27 10:51:32;;;;;;;2.03;1.92;;;;;;;19.60;38.50;64024.41;5006905;28;20230;-76
2022/10/27 10:54:03;;;;;;;2.03;1.92;;;;;;;19.60;38.70;64030.09;5005353;28;20592;-76
2022/10/27 10:56:32;;;;;;;2.08;1.95;;;;;;;19.68;38.93;64030.69;5007332;28;20225;-77
2022/10/27 10:59:07;;;;;;;3.13;2.05;;;;;;;19.77;39.22;64047.84;5013411;28;20265;-76
2022/10/27 11:01:48;;;;;;;2.03;1.92;;;;;;;19.94;38.03;64059.88;5026860;28;20418;-77
2022/10/27 11:04:20;;;;;;;3.03;1.90;;;;;;;20.10;37.32;64076.56;5011182;28;20206;-77
2022/10/27 11:07:03;;;;;;;2.40;2.20;;;;;;;20.27;37.96;64097.44;5007337;28;20282;-77
2022/10/27 11:09:38;;;;;;;4.53;2.10;;;;;;;20.37;37.76;64104.75;5014046;28;20236;-76
2022/10/27 11:12:13;;;;;;;1.77;1.65;;;;;;;20.40;36.61;64105.84;5018643;28;20280;-77
2022/10/27 11:14:43;;;;;;;4.45;1.80;;;;;;;20.20;36.59;64087.56;5005533;28;20206;-75
2022/10/27 11:17:11;;;;;;;2.17;1.83;;;;;;;20.08;36.51;64080.19;5009821;28;20289;-76
2022/10/27 11:19:41;;;;;;;1.80;1.70;;;;;;;20.09;36.46;64072.94;5006879;28;20198;-75
2022/10/27 11:22:16;;;;;;;2.08;1.73;;;;;;;19.92;35.71;64057.78;5009310;28;20235;-77
2022/10/27 11:24:52;;;;;;;1.95;1.85;;;;;;;19.75;35.26;64040.59;5003746;28;20209;-76
2022/10/27 11:27:25;;;;;;;3.08;1.70;;;;;;;19.81;35.80;64046.31;5002444;28;20257;-76
2022/10/27 11:30:01;;;;;;;2.40;1.67;;;;;;;19.85;35.79;64050.47;5010810;28;20206;-76
2022/10/27 11:32:35;;;;;;;1.08;1.08;;;;;;;19.88;35.68;64056.22;5006428;28;20222;-76
2022/10/27 11:35:11;;;;;;;2.67;2.00;;;;;;;19.84;35.57;64047.38;5010635;28;20236;-75
2022/10/27 11:37:50;;;;;;;5.75;1.60;;;;;;;19.97;36.18;64063.53;5007763;28;20225;-77
2022/10/27 11:40:25;;;;;;;2.85;2.65;;;;;;;20.16;36.30;64083.38;5006093;28;20534;-78
2022/10/27 11:42:58;;;;;;;3.28;2.20;;;;;;;20.30;36.19;64100.56;5001025;28;20224;-76
2022/10/27 11:45:29;;;;;;;3.53;1.80;;;;;;;20.46;36.59;64116.75;5018350;28;20221;-76
2022/10/27 11:48:02;;;;;;;2.28;2.08;;;;;;;20.61;36.03;64132.41;5022989;28;20452;-75